sensor_id;sensor_type;location;lat;lon;timestamp;temperature;humidity
5556;DHT22;2801;50.972;7.856;2023-04-19T00:00:11;9.50;99.90
5556;DHT22;2801;50.972;7.856;2023-04-19T00:02:38;9.50;99.90
5556;DHT22;2801;50.972;7.856;2023-04-19T00:05:08;9.60;99.90
5556;DHT22;2801;50.972;7.856;2023-04-19T00:07:37;9.50;99.90
5556;DHT22;2801;50.972;7.856;2023-04-19T00:10:05;9.50;99.90
5556;DHT22;2801;50.972;7.856;2023-04-19T00:12:33;9.50;99.90
5556;DHT22;2801;50.972;7.856;2023-04-19T00:14:59;9.50;99.90
5556;DHT22;2801;50.972;7.856;2023-04-19T00:17:26;9.50;99.90
5556;DHT22;2801;50.972;7.856;2023-04-19T00:19:54;9.50;99.90
5556;DHT22;2801;50.972;7.856;2023-04-19T00:22:22;9.50;99.90
5556;DHT22;2801;50.972;7.856;2023-04-19T00:24:49;9.50;99.90
5556;DHT22;2801;50.972;7.856;2023-04-19T00:27:16;9.50;99.90
5556;DHT22;2801;50.972;7.856;2023-04-19T00:29:43;9.50;99.90
5556;DHT22;2801;50.972;7.856;2023-04-19T00:32:10;9.60;99.90
5556;DHT22;2801;50.972;7.856;2023-04-19T00:34:37;9.50;99.90
5556;DHT22;2801;50.972;7.856;2023-04-19T00:37:04;9.50;99.90
5556;DHT22;2801;50.972;7.856;2023-04-19T00:39:31;9.50;99.90
5556;DHT22;2801;50.972;7.856;2023-04-19T00:41:58;9.50;99.90
5556;DHT22;2801;50.972;7.856;2023-04-19T00:44:25;9.50;99.90
5556;DHT22;2801;50.972;7.856;2023-04-19T00:46:52;9.50;99.90
5556;DHT22;2801;50.972;7.856;2023-04-19T00:49:21;9.50;99.90
5556;DHT22;2801;50.972;7.856;2023-04-19T00:51:50;9.40;99.90
5556;DHT22;2801;50.972;7.856;2023-04-19T00:54:18;9.40;99.90
5556;DHT22;2801;50.972;7.856;2023-04-19T00:56:45;9.50;99.90
5556;DHT22;2801;50.972;7.856;2023-04-19T00:59:14;9.50;99.90
5556;DHT22;2801;50.972;7.856;2023-04-19T01:01:41;9.40;99.90
5556;DHT22;2801;50.972;7.856;2023-04-19T01:04:08;9.50;99.90
5556;DHT22;2801;50.972;7.856;2023-04-19T01:06:37;9.50;99.90
5556;DHT22;2801;50.972;7.856;2023-04-19T01:09:06;9.50;99.90
5556;DHT22;2801;50.972;7.856;2023-04-19T01:11:34;9.40;99.90
5556;DHT22;2801;50.972;7.856;2023-04-19T01:14:01;9.30;99.90
5556;DHT22;2801;50.972;7.856;2023-04-19T01:16:28;9.30;99.90
5556;DHT22;2801;50.972;7.856;2023-04-19T01:18:54;9.30;99.90
5556;DHT22;2801;50.972;7.856;2023-04-19T01:21:22;9.20;99.90
5556;DHT22;2801;50.972;7.856;2023-04-19T01:23:49;9.20;99.90
5556;DHT22;2801;50.972;7.856;2023-04-19T01:26:17;9.10;99.90
5556;DHT22;2801;50.972;7.856;2023-04-19T01:28:44;9.10;99.90
5556;DHT22;2801;50.972;7.856;2023-04-19T01:31:11;9.10;99.90
5556;DHT22;2801;50.972;7.856;2023-04-19T01:33:38;9.10;99.90
5556;DHT22;2801;50.972;7.856;2023-04-19T01:36:06;9.00;99.90
5556;DHT22;2801;50.972;7.856;2023-04-19T01:38:33;8.90;99.90
5556;DHT22;2801;50.972;7.856;2023-04-19T01:41:00;8.80;99.90
5556;DHT22;2801;50.972;7.856;2023-04-19T01:43:27;8.70;99.90
5556;DHT22;2801;50.972;7.856;2023-04-19T01:45:54;8.60;99.90
5556;DHT22;2801;50.972;7.856;2023-04-19T01:48:21;8.50;99.90
5556;DHT22;2801;50.972;7.856;2023-04-19T01:50:48;8.60;99.90
5556;DHT22;2801;50.972;7.856;2023-04-19T01:53:15;8.50;99.90
5556;DHT22;2801;50.972;7.856;2023-04-19T01:55:42;8.60;99.90
5556;DHT22;2801;50.972;7.856;2023-04-19T01:58:09;8.60;99.90
5556;DHT22;2801;50.972;7.856;2023-04-19T02:00:36;8.60;99.90
5556;DHT22;2801;50.972;7.856;2023-04-19T02:03:02;8.70;99.90
5556;DHT22;2801;50.972;7.856;2023-04-19T02:05:31;8.70;99.90
5556;DHT22;2801;50.972;7.856;2023-04-19T02:07:58;8.80;99.90
5556;DHT22;2801;50.972;7.856;2023-04-19T02:10:27;8.90;99.90
5556;DHT22;2801;50.972;7.856;2023-04-19T02:12:53;8.90;99.90
5556;DHT22;2801;50.972;7.856;2023-04-19T02:15:20;9.00;99.90
5556;DHT22;2801;50.972;7.856;2023-04-19T02:17:47;9.10;99.90
5556;DHT22;2801;50.972;7.856;2023-04-19T02:20:15;9.00;99.90
5556;DHT22;2801;50.972;7.856;2023-04-19T02:22:42;9.10;99.90
5556;DHT22;2801;50.972;7.856;2023-04-19T02:25:09;9.10;99.90
5556;DHT22;2801;50.972;7.856;2023-04-19T02:27:36;9.20;99.90
5556;DHT22;2801;50.972;7.856;2023-04-19T02:30:03;9.20;99.90
5556;DHT22;2801;50.972;7.856;2023-04-19T02:32:31;9.30;99.90
5556;DHT22;2801;50.972;7.856;2023-04-19T02:34:58;9.30;99.90
5556;DHT22;2801;50.972;7.856;2023-04-19T02:37:25;9.60;99.90
5556;DHT22;2801;50.972;7.856;2023-04-19T02:39:51;9.40;99.90
5556;DHT22;2801;50.972;7.856;2023-04-19T02:42:18;9.40;99.90
5556;DHT22;2801;50.972;7.856;2023-04-19T02:44:45;9.40;99.90
5556;DHT22;2801;50.972;7.856;2023-04-19T02:47:12;9.40;99.90
5556;DHT22;2801;50.972;7.856;2023-04-19T02:49:39;9.40;99.90
5556;DHT22;2801;50.972;7.856;2023-04-19T02:52:07;9.40;99.90
5556;DHT22;2801;50.972;7.856;2023-04-19T02:54:34;9.50;99.90
5556;DHT22;2801;50.972;7.856;2023-04-19T02:57:01;9.30;99.90
5556;DHT22;2801;50.972;7.856;2023-04-19T02:59:28;9.30;99.90
5556;DHT22;2801;50.972;7.856;2023-04-19T03:01:55;9.20;99.90
5556;DHT22;2801;50.972;7.856;2023-04-19T03:04:22;9.20;99.90
5556;DHT22;2801;50.972;7.856;2023-04-19T03:06:50;9.20;99.90
5556;DHT22;2801;50.972;7.856;2023-04-19T03:09:18;9.10;99.90
5556;DHT22;2801;50.972;7.856;2023-04-19T03:11:45;9.20;99.90
5556;DHT22;2801;50.972;7.856;2023-04-19T03:14:12;9.10;99.90
5556;DHT22;2801;50.972;7.856;2023-04-19T03:16:40;9.10;99.90
5556;DHT22;2801;50.972;7.856;2023-04-19T03:19:07;9.10;99.90
5556;DHT22;2801;50.972;7.856;2023-04-19T03:21:34;9.10;99.90
5556;DHT22;2801;50.972;7.856;2023-04-19T03:24:01;9.10;99.90
5556;DHT22;2801;50.972;7.856;2023-04-19T03:26:28;9.00;99.90
5556;DHT22;2801;50.972;7.856;2023-04-19T03:28:55;9.00;99.90
5556;DHT22;2801;50.972;7.856;2023-04-19T03:31:22;9.00;99.90
5556;DHT22;2801;50.972;7.856;2023-04-19T03:33:49;9.10;99.90
5556;DHT22;2801;50.972;7.856;2023-04-19T03:36:16;9.10;99.90
5556;DHT22;2801;50.972;7.856;2023-04-19T03:38:43;9.10;99.90
5556;DHT22;2801;50.972;7.856;2023-04-19T03:43:46;9.10;99.90
5556;DHT22;2801;50.972;7.856;2023-04-19T03:46:13;9.10;99.90
5556;DHT22;2801;50.972;7.856;2023-04-19T03:48:41;9.00;99.90
5556;DHT22;2801;50.972;7.856;2023-04-19T03:51:08;9.00;99.90
5556;DHT22;2801;50.972;7.856;2023-04-19T03:53:35;8.90;99.90
5556;DHT22;2801;50.972;7.856;2023-04-19T03:56:02;8.90;99.90
5556;DHT22;2801;50.972;7.856;2023-04-19T03:58:29;8.90;99.90
5556;DHT22;2801;50.972;7.856;2023-04-19T04:00:57;8.90;99.90
5556;DHT22;2801;50.972;7.856;2023-04-19T04:03:25;8.90;99.90
5556;DHT22;2801;50.972;7.856;2023-04-19T04:05:52;8.90;99.90
5556;DHT22;2801;50.972;7.856;2023-04-19T04:08:19;8.90;99.90
5556;DHT22;2801;50.972;7.856;2023-04-19T04:10:46;8.90;99.90
5556;DHT22;2801;50.972;7.856;2023-04-19T04:13:13;9.00;99.90
5556;DHT22;2801;50.972;7.856;2023-04-19T04:15:39;9.00;99.90
5556;DHT22;2801;50.972;7.856;2023-04-19T04:18:07;9.00;99.90
5556;DHT22;2801;50.972;7.856;2023-04-19T04:20:34;9.00;99.90
5556;DHT22;2801;50.972;7.856;2023-04-19T04:23:01;9.10;99.90
5556;DHT22;2801;50.972;7.856;2023-04-19T04:25:28;9.10;99.90
5556;DHT22;2801;50.972;7.856;2023-04-19T04:27:58;9.10;99.90
5556;DHT22;2801;50.972;7.856;2023-04-19T04:30:25;9.20;99.90
5556;DHT22;2801;50.972;7.856;2023-04-19T04:32:54;9.10;99.90
5556;DHT22;2801;50.972;7.856;2023-04-19T04:35:24;9.30;99.90
5556;DHT22;2801;50.972;7.856;2023-04-19T04:37:51;9.00;99.90
5556;DHT22;2801;50.972;7.856;2023-04-19T04:40:21;9.00;99.90
5556;DHT22;2801;50.972;7.856;2023-04-19T04:42:48;9.00;99.90
5556;DHT22;2801;50.972;7.856;2023-04-19T04:45:18;9.00;99.90
5556;DHT22;2801;50.972;7.856;2023-04-19T04:47:45;8.90;99.90
5556;DHT22;2801;50.972;7.856;2023-04-19T04:50:12;8.90;99.90
5556;DHT22;2801;50.972;7.856;2023-04-19T04:52:39;9.00;99.90
5556;DHT22;2801;50.972;7.856;2023-04-19T04:55:07;9.00;99.90
5556;DHT22;2801;50.972;7.856;2023-04-19T04:57:34;9.00;99.90
5556;DHT22;2801;50.972;7.856;2023-04-19T05:00:02;9.00;99.90
5556;DHT22;2801;50.972;7.856;2023-04-19T05:02:32;9.10;99.90
5556;DHT22;2801;50.972;7.856;2023-04-19T05:04:59;9.00;99.90
5556;DHT22;2801;50.972;7.856;2023-04-19T05:07:26;9.10;99.90
5556;DHT22;2801;50.972;7.856;2023-04-19T05:09:52;9.10;99.90
5556;DHT22;2801;50.972;7.856;2023-04-19T05:12:19;9.10;99.90
5556;DHT22;2801;50.972;7.856;2023-04-19T05:14:46;9.10;99.90
5556;DHT22;2801;50.972;7.856;2023-04-19T05:17:13;9.10;99.90
5556;DHT22;2801;50.972;7.856;2023-04-19T05:19:43;9.10;99.90
5556;DHT22;2801;50.972;7.856;2023-04-19T05:22:10;9.10;99.90
5556;DHT22;2801;50.972;7.856;2023-04-19T05:24:37;9.10;99.90
5556;DHT22;2801;50.972;7.856;2023-04-19T05:27:07;9.30;99.90
5556;DHT22;2801;50.972;7.856;2023-04-19T05:29:35;9.10;99.90
5556;DHT22;2801;50.972;7.856;2023-04-19T05:32:02;9.10;99.90
5556;DHT22;2801;50.972;7.856;2023-04-19T05:34:29;9.10;99.90
5556;DHT22;2801;50.972;7.856;2023-04-19T05:36:56;9.00;99.90
5556;DHT22;2801;50.972;7.856;2023-04-19T05:39:23;9.00;99.90
5556;DHT22;2801;50.972;7.856;2023-04-19T05:41:49;9.00;99.90
5556;DHT22;2801;50.972;7.856;2023-04-19T05:44:16;9.00;99.90
5556;DHT22;2801;50.972;7.856;2023-04-19T05:46:43;8.90;99.90
5556;DHT22;2801;50.972;7.856;2023-04-19T05:49:10;8.90;99.90
5556;DHT22;2801;50.972;7.856;2023-04-19T05:51:37;9.00;99.90
5556;DHT22;2801;50.972;7.856;2023-04-19T05:54:04;9.00;99.90
5556;DHT22;2801;50.972;7.856;2023-04-19T05:56:31;9.00;99.90
5556;DHT22;2801;50.972;7.856;2023-04-19T05:58:58;9.00;99.90
5556;DHT22;2801;50.972;7.856;2023-04-19T06:01:26;9.00;99.90
5556;DHT22;2801;50.972;7.856;2023-04-19T06:03:53;9.00;99.90
5556;DHT22;2801;50.972;7.856;2023-04-19T06:06:21;9.00;99.90
5556;DHT22;2801;50.972;7.856;2023-04-19T06:08:49;9.00;99.90
5556;DHT22;2801;50.972;7.856;2023-04-19T06:11:20;9.00;99.90
5556;DHT22;2801;50.972;7.856;2023-04-19T06:14:00;9.00;99.90
5556;DHT22;2801;50.972;7.856;2023-04-19T06:16:27;9.00;99.90
5556;DHT22;2801;50.972;7.856;2023-04-19T06:18:54;9.00;99.90
5556;DHT22;2801;50.972;7.856;2023-04-19T06:21:22;9.20;99.90
5556;DHT22;2801;50.972;7.856;2023-04-19T06:23:49;9.10;99.90
5556;DHT22;2801;50.972;7.856;2023-04-19T06:26:16;9.10;99.90
5556;DHT22;2801;50.972;7.856;2023-04-19T06:28:42;9.10;99.90
5556;DHT22;2801;50.972;7.856;2023-04-19T06:31:09;9.30;99.90
5556;DHT22;2801;50.972;7.856;2023-04-19T06:33:37;9.50;99.90
5556;DHT22;2801;50.972;7.856;2023-04-19T06:36:05;10.40;99.90
5556;DHT22;2801;50.972;7.856;2023-04-19T06:38:32;11.80;99.90
5556;DHT22;2801;50.972;7.856;2023-04-19T06:40:59;13.50;99.90
5556;DHT22;2801;50.972;7.856;2023-04-19T06:43:26;14.80;99.90
5556;DHT22;2801;50.972;7.856;2023-04-19T06:46:02;15.30;99.90
5556;DHT22;2801;50.972;7.856;2023-04-19T06:48:33;15.90;99.90
5556;DHT22;2801;50.972;7.856;2023-04-19T06:51:01;16.60;99.90
5556;DHT22;2801;50.972;7.856;2023-04-19T06:53:28;17.20;99.70
5556;DHT22;2801;50.972;7.856;2023-04-19T06:56:00;17.70;97.30
5556;DHT22;2801;50.972;7.856;2023-04-19T06:58:28;18.00;96.90
5556;DHT22;2801;50.972;7.856;2023-04-19T07:01:00;18.20;97.70
5556;DHT22;2801;50.972;7.856;2023-04-19T07:03:28;18.10;95.00
5556;DHT22;2801;50.972;7.856;2023-04-19T07:05:55;17.30;95.20
5556;DHT22;2801;50.972;7.856;2023-04-19T07:08:23;16.90;94.70
5556;DHT22;2801;50.972;7.856;2023-04-19T07:11:04;17.20;94.60
5556;DHT22;2801;50.972;7.856;2023-04-19T07:13:31;17.60;92.30
5556;DHT22;2801;50.972;7.856;2023-04-19T07:15:58;18.00;92.80
5556;DHT22;2801;50.972;7.856;2023-04-19T07:18:25;18.40;93.30
5556;DHT22;2801;50.972;7.856;2023-04-19T07:20:52;18.90;93.30
5556;DHT22;2801;50.972;7.856;2023-04-19T07:23:19;19.70;91.70
5556;DHT22;2801;50.972;7.856;2023-04-19T07:25:46;20.30;90.60
5556;DHT22;2801;50.972;7.856;2023-04-19T07:28:13;20.80;87.80
5556;DHT22;2801;50.972;7.856;2023-04-19T07:30:41;20.90;84.00
5556;DHT22;2801;50.972;7.856;2023-04-19T07:33:11;21.00;86.00
5556;DHT22;2801;50.972;7.856;2023-04-19T07:35:38;21.10;81.20
5556;DHT22;2801;50.972;7.856;2023-04-19T07:38:05;21.10;81.30
5556;DHT22;2801;50.972;7.856;2023-04-19T07:40:32;20.70;77.60
5556;DHT22;2801;50.972;7.856;2023-04-19T07:42:59;20.00;80.00
5556;DHT22;2801;50.972;7.856;2023-04-19T07:45:26;19.20;80.50
5556;DHT22;2801;50.972;7.856;2023-04-19T07:47:55;19.30;79.50
5556;DHT22;2801;50.972;7.856;2023-04-19T07:50:24;18.40;71.60
5556;DHT22;2801;50.972;7.856;2023-04-19T07:52:52;17.00;79.00
5556;DHT22;2801;50.972;7.856;2023-04-19T07:55:19;16.00;80.70
5556;DHT22;2801;50.972;7.856;2023-04-19T07:57:46;15.40;83.00
5556;DHT22;2801;50.972;7.856;2023-04-19T08:00:15;15.90;86.00
5556;DHT22;2801;50.972;7.856;2023-04-19T08:02:44;16.40;82.10
5556;DHT22;2801;50.972;7.856;2023-04-19T08:05:13;17.10;85.10
5556;DHT22;2801;50.972;7.856;2023-04-19T08:07:44;18.20;78.00
5556;DHT22;2801;50.972;7.856;2023-04-19T08:10:11;17.60;76.00
5556;DHT22;2801;50.972;7.856;2023-04-19T08:12:38;18.00;80.00
5556;DHT22;2801;50.972;7.856;2023-04-19T08:15:22;18.50;77.30
5556;DHT22;2801;50.972;7.856;2023-04-19T08:18:09;18.70;74.40
5556;DHT22;2801;50.972;7.856;2023-04-19T08:20:36;19.40;76.00
5556;DHT22;2801;50.972;7.856;2023-04-19T08:23:03;19.10;70.20
5556;DHT22;2801;50.972;7.856;2023-04-19T08:25:46;18.90;72.50
5556;DHT22;2801;50.972;7.856;2023-04-19T08:28:13;19.30;74.70
5556;DHT22;2801;50.972;7.856;2023-04-19T08:30:41;19.50;74.70
5556;DHT22;2801;50.972;7.856;2023-04-19T08:33:08;19.60;74.10
5556;DHT22;2801;50.972;7.856;2023-04-19T08:35:36;19.70;74.90
5556;DHT22;2801;50.972;7.856;2023-04-19T08:38:04;19.70;71.80
5556;DHT22;2801;50.972;7.856;2023-04-19T08:40:31;19.50;70.30
5556;DHT22;2801;50.972;7.856;2023-04-19T08:42:59;19.90;73.10
5556;DHT22;2801;50.972;7.856;2023-04-19T08:45:32;19.80;70.30
5556;DHT22;2801;50.972;7.856;2023-04-19T08:48:01;19.40;70.90
5556;DHT22;2801;50.972;7.856;2023-04-19T08:50:29;19.30;66.80
5556;DHT22;2801;50.972;7.856;2023-04-19T08:53:11;18.30;67.50
5556;DHT22;2801;50.972;7.856;2023-04-19T08:55:42;17.40;67.50
5556;DHT22;2801;50.972;7.856;2023-04-19T08:58:29;17.10;69.90
5556;DHT22;2801;50.972;7.856;2023-04-19T09:01:18;16.90;71.90
5556;DHT22;2801;50.972;7.856;2023-04-19T09:03:59;17.60;71.00
5556;DHT22;2801;50.972;7.856;2023-04-19T09:06:47;17.70;68.70
5556;DHT22;2801;50.972;7.856;2023-04-19T09:09:28;18.20;70.90
5556;DHT22;2801;50.972;7.856;2023-04-19T09:11:59;17.90;67.30
5556;DHT22;2801;50.972;7.856;2023-04-19T09:14:27;18.20;72.10
5556;DHT22;2801;50.972;7.856;2023-04-19T09:17:11;18.90;69.20
5556;DHT22;2801;50.972;7.856;2023-04-19T09:19:47;19.90;69.50
5556;DHT22;2801;50.972;7.856;2023-04-19T09:22:15;21.00;68.50
5556;DHT22;2801;50.972;7.856;2023-04-19T09:24:43;21.30;63.00
5556;DHT22;2801;50.972;7.856;2023-04-19T09:27:33;22.00;64.60
5556;DHT22;2801;50.972;7.856;2023-04-19T09:30:02;22.40;62.20
5556;DHT22;2801;50.972;7.856;2023-04-19T09:32:45;22.40;62.20
5556;DHT22;2801;50.972;7.856;2023-04-19T09:35:14;22.00;62.10
5556;DHT22;2801;50.972;7.856;2023-04-19T09:37:41;21.40;62.90
5556;DHT22;2801;50.972;7.856;2023-04-19T09:40:23;20.30;58.30
5556;DHT22;2801;50.972;7.856;2023-04-19T09:42:51;18.70;63.00
5556;DHT22;2801;50.972;7.856;2023-04-19T09:45:21;18.00;64.30
5556;DHT22;2801;50.972;7.856;2023-04-19T09:48:04;17.90;64.70
5556;DHT22;2801;50.972;7.856;2023-04-19T09:50:36;18.40;66.60
5556;DHT22;2801;50.972;7.856;2023-04-19T09:53:28;18.40;63.00
5556;DHT22;2801;50.972;7.856;2023-04-19T09:56:00;18.40;58.50
5556;DHT22;2801;50.972;7.856;2023-04-19T09:58:29;18.30;63.00
5556;DHT22;2801;50.972;7.856;2023-04-19T10:01:15;18.50;59.90
5556;DHT22;2801;50.972;7.856;2023-04-19T10:03:47;18.80;59.60
5556;DHT22;2801;50.972;7.856;2023-04-19T10:06:18;19.30;59.30
5556;DHT22;2801;50.972;7.856;2023-04-19T10:08:49;19.40;57.90
5556;DHT22;2801;50.972;7.856;2023-04-19T10:11:20;18.90;57.30
5556;DHT22;2801;50.972;7.856;2023-04-19T10:13:49;19.50;58.30
5556;DHT22;2801;50.972;7.856;2023-04-19T10:16:22;20.00;57.40
5556;DHT22;2801;50.972;7.856;2023-04-19T10:18:51;20.10;58.80
5556;DHT22;2801;50.972;7.856;2023-04-19T10:21:19;19.80;58.90
5556;DHT22;2801;50.972;7.856;2023-04-19T10:23:47;19.60;60.40
5556;DHT22;2801;50.972;7.856;2023-04-19T10:26:14;19.00;57.40
5556;DHT22;2801;50.972;7.856;2023-04-19T10:28:41;18.40;58.10
5556;DHT22;2801;50.972;7.856;2023-04-19T10:31:11;18.20;59.40
5556;DHT22;2801;50.972;7.856;2023-04-19T10:33:40;18.10;60.70
5556;DHT22;2801;50.972;7.856;2023-04-19T10:36:09;18.00;60.50
5556;DHT22;2801;50.972;7.856;2023-04-19T10:38:50;17.60;60.10
5556;DHT22;2801;50.972;7.856;2023-04-19T10:41:21;17.70;60.10
5556;DHT22;2801;50.972;7.856;2023-04-19T10:44:11;17.50;61.00
5556;DHT22;2801;50.972;7.856;2023-04-19T10:46:57;17.50;59.60
5556;DHT22;2801;50.972;7.856;2023-04-19T10:49:27;17.70;59.40
5556;DHT22;2801;50.972;7.856;2023-04-19T10:51:54;18.20;55.10
5556;DHT22;2801;50.972;7.856;2023-04-19T10:54:40;18.10;56.80
5556;DHT22;2801;50.972;7.856;2023-04-19T10:57:08;18.30;53.70
5556;DHT22;2801;50.972;7.856;2023-04-19T10:59:38;18.60;55.70
5556;DHT22;2801;50.972;7.856;2023-04-19T11:07:19;17.90;49.70
5556;DHT22;2801;50.972;7.856;2023-04-19T11:10:07;17.50;52.30
5556;DHT22;2801;50.972;7.856;2023-04-19T11:12:53;16.80;53.30
5556;DHT22;2801;50.972;7.856;2023-04-19T11:15:23;16.20;50.70
5556;DHT22;2801;50.972;7.856;2023-04-19T11:17:50;16.00;55.50
5556;DHT22;2801;50.972;7.856;2023-04-19T11:20:37;15.90;55.40
5556;DHT22;2801;50.972;7.856;2023-04-19T11:23:15;15.70;54.20
5556;DHT22;2801;50.972;7.856;2023-04-19T11:26:00;15.40;53.00
5556;DHT22;2801;50.972;7.856;2023-04-19T11:28:45;15.20;54.00
5556;DHT22;2801;50.972;7.856;2023-04-19T11:31:12;15.00;57.10
5556;DHT22;2801;50.972;7.856;2023-04-19T11:33:39;15.10;57.40
5556;DHT22;2801;50.972;7.856;2023-04-19T11:36:10;15.00;56.30
5556;DHT22;2801;50.972;7.856;2023-04-19T11:38:57;14.60;55.90
5556;DHT22;2801;50.972;7.856;2023-04-19T11:41:41;14.60;57.40
5556;DHT22;2801;50.972;7.856;2023-04-19T11:44:18;14.30;54.30
5556;DHT22;2801;50.972;7.856;2023-04-19T11:46:59;14.40;57.50
5556;DHT22;2801;50.972;7.856;2023-04-19T11:49:44;14.50;54.30
5556;DHT22;2801;50.972;7.856;2023-04-19T11:52:11;14.70;58.00
5556;DHT22;2801;50.972;7.856;2023-04-19T11:54:47;14.60;56.60
5556;DHT22;2801;50.972;7.856;2023-04-19T11:57:14;14.40;52.10
5556;DHT22;2801;50.972;7.856;2023-04-19T12:00:01;14.30;52.70
5556;DHT22;2801;50.972;7.856;2023-04-19T12:02:36;14.40;55.00
5556;DHT22;2801;50.972;7.856;2023-04-19T12:05:22;14.50;53.20
5556;DHT22;2801;50.972;7.856;2023-04-19T12:08:04;14.60;54.90
5556;DHT22;2801;50.972;7.856;2023-04-19T12:10:34;14.10;50.70
5556;DHT22;2801;50.972;7.856;2023-04-19T12:13:15;13.90;51.20
5556;DHT22;2801;50.972;7.856;2023-04-19T12:15:44;14.10;53.80
5556;DHT22;2801;50.972;7.856;2023-04-19T12:18:48;14.30;55.40
5556;DHT22;2801;50.972;7.856;2023-04-19T12:21:27;14.40;52.20
5556;DHT22;2801;50.972;7.856;2023-04-19T12:23:57;14.00;50.00
5556;DHT22;2801;50.972;7.856;2023-04-19T12:26:56;14.20;51.10
5556;DHT22;2801;50.972;7.856;2023-04-19T12:29:41;14.20;50.50
5556;DHT22;2801;50.972;7.856;2023-04-19T12:32:09;14.30;50.90
5556;DHT22;2801;50.972;7.856;2023-04-19T12:34:36;14.30;50.30
5556;DHT22;2801;50.972;7.856;2023-04-19T12:37:03;14.50;53.00
5556;DHT22;2801;50.972;7.856;2023-04-19T12:39:30;14.60;52.00
5556;DHT22;2801;50.972;7.856;2023-04-19T12:41:57;14.60;52.00
5556;DHT22;2801;50.972;7.856;2023-04-19T12:44:24;14.90;53.50
5556;DHT22;2801;50.972;7.856;2023-04-19T12:46:51;14.80;50.40
5556;DHT22;2801;50.972;7.856;2023-04-19T12:49:22;14.90;50.20
5556;DHT22;2801;50.972;7.856;2023-04-19T12:51:49;14.90;48.80
5556;DHT22;2801;50.972;7.856;2023-04-19T12:54:16;14.40;47.40
5556;DHT22;2801;50.972;7.856;2023-04-19T12:56:43;14.50;51.60
5556;DHT22;2801;50.972;7.856;2023-04-19T12:59:10;14.40;49.50
5556;DHT22;2801;50.972;7.856;2023-04-19T13:01:37;13.90;49.00
5556;DHT22;2801;50.972;7.856;2023-04-19T13:04:22;13.90;50.80
5556;DHT22;2801;50.972;7.856;2023-04-19T13:06:49;13.80;51.10
5556;DHT22;2801;50.972;7.856;2023-04-19T13:09:16;13.60;48.50
5556;DHT22;2801;50.972;7.856;2023-04-19T13:12:01;13.60;50.40
5556;DHT22;2801;50.972;7.856;2023-04-19T13:14:46;13.90;52.20
5556;DHT22;2801;50.972;7.856;2023-04-19T13:17:35;13.70;52.10
5556;DHT22;2801;50.972;7.856;2023-04-19T13:20:04;14.00;52.60
5556;DHT22;2801;50.972;7.856;2023-04-19T13:22:32;14.00;53.30
5556;DHT22;2801;50.972;7.856;2023-04-19T13:24:59;13.90;52.40
5556;DHT22;2801;50.972;7.856;2023-04-19T13:27:26;14.00;53.80
5556;DHT22;2801;50.972;7.856;2023-04-19T13:29:54;14.20;54.80
5556;DHT22;2801;50.972;7.856;2023-04-19T13:32:22;14.20;54.20
5556;DHT22;2801;50.972;7.856;2023-04-19T13:34:49;14.40;55.40
5556;DHT22;2801;50.972;7.856;2023-04-19T13:37:16;14.50;55.30
5556;DHT22;2801;50.972;7.856;2023-04-19T13:39:43;14.40;53.40
5556;DHT22;2801;50.972;7.856;2023-04-19T13:42:10;14.30;55.40
5556;DHT22;2801;50.972;7.856;2023-04-19T13:44:37;14.30;54.50
5556;DHT22;2801;50.972;7.856;2023-04-19T13:47:04;14.30;55.60
5556;DHT22;2801;50.972;7.856;2023-04-19T13:49:32;14.30;55.70
5556;DHT22;2801;50.972;7.856;2023-04-19T13:51:59;14.50;56.00
5556;DHT22;2801;50.972;7.856;2023-04-19T13:54:25;14.70;55.80
5556;DHT22;2801;50.972;7.856;2023-04-19T13:56:52;14.80;55.40
5556;DHT22;2801;50.972;7.856;2023-04-19T13:59:20;14.80;54.80
5556;DHT22;2801;50.972;7.856;2023-04-19T14:01:46;14.60;53.80
5556;DHT22;2801;50.972;7.856;2023-04-19T14:04:14;14.50;54.10
5556;DHT22;2801;50.972;7.856;2023-04-19T14:06:42;14.40;53.90
5556;DHT22;2801;50.972;7.856;2023-04-19T14:09:08;14.50;54.30
5556;DHT22;2801;50.972;7.856;2023-04-19T14:11:35;14.40;54.20
5556;DHT22;2801;50.972;7.856;2023-04-19T14:14:03;14.30;54.10
5556;DHT22;2801;50.972;7.856;2023-04-19T14:16:30;14.40;54.80
5556;DHT22;2801;50.972;7.856;2023-04-19T14:18:57;14.50;54.30
5556;DHT22;2801;50.972;7.856;2023-04-19T14:21:25;14.30;53.00
5556;DHT22;2801;50.972;7.856;2023-04-19T14:23:53;14.30;52.60
5556;DHT22;2801;50.972;7.856;2023-04-19T14:26:20;14.40;54.80
5556;DHT22;2801;50.972;7.856;2023-04-19T14:28:47;14.50;54.20
5556;DHT22;2801;50.972;7.856;2023-04-19T14:31:14;14.50;53.70
5556;DHT22;2801;50.972;7.856;2023-04-19T14:33:41;14.30;53.20
5556;DHT22;2801;50.972;7.856;2023-04-19T14:36:08;14.40;53.30
5556;DHT22;2801;50.972;7.856;2023-04-19T14:38:35;14.50;54.30
5556;DHT22;2801;50.972;7.856;2023-04-19T14:41:02;14.10;50.90
5556;DHT22;2801;50.972;7.856;2023-04-19T14:43:29;13.70;51.40
5556;DHT22;2801;50.972;7.856;2023-04-19T14:45:56;13.70;52.90
5556;DHT22;2801;50.972;7.856;2023-04-19T14:48:23;13.50;52.90
5556;DHT22;2801;50.972;7.856;2023-04-19T14:50:50;13.60;53.90
5556;DHT22;2801;50.972;7.856;2023-04-19T14:53:17;13.70;53.60
5556;DHT22;2801;50.972;7.856;2023-04-19T14:55:44;13.80;54.10
5556;DHT22;2801;50.972;7.856;2023-04-19T14:58:11;13.60;52.50
5556;DHT22;2801;50.972;7.856;2023-04-19T15:00:38;13.80;55.20
5556;DHT22;2801;50.972;7.856;2023-04-19T15:03:05;13.90;54.10
5556;DHT22;2801;50.972;7.856;2023-04-19T15:05:33;14.00;54.10
5556;DHT22;2801;50.972;7.856;2023-04-19T15:08:02;13.60;52.50
5556;DHT22;2801;50.972;7.856;2023-04-19T15:10:29;13.70;54.00
5556;DHT22;2801;50.972;7.856;2023-04-19T15:12:56;13.30;52.60
5556;DHT22;2801;50.972;7.856;2023-04-19T15:15:23;12.90;51.70
5556;DHT22;2801;50.972;7.856;2023-04-19T15:17:50;12.80;52.20
5556;DHT22;2801;50.972;7.856;2023-04-19T15:20:17;12.80;52.40
5556;DHT22;2801;50.972;7.856;2023-04-19T15:22:44;13.00;52.40
5556;DHT22;2801;50.972;7.856;2023-04-19T15:25:11;13.10;52.70
5556;DHT22;2801;50.972;7.856;2023-04-19T15:27:38;13.00;53.30
5556;DHT22;2801;50.972;7.856;2023-04-19T15:30:05;13.10;52.70
5556;DHT22;2801;50.972;7.856;2023-04-19T15:32:33;13.30;52.60
5556;DHT22;2801;50.972;7.856;2023-04-19T15:35:02;13.30;52.60
5556;DHT22;2801;50.972;7.856;2023-04-19T15:37:29;13.20;52.50
5556;DHT22;2801;50.972;7.856;2023-04-19T15:39:56;13.20;52.00
5556;DHT22;2801;50.972;7.856;2023-04-19T15:42:23;12.90;51.10
5556;DHT22;2801;50.972;7.856;2023-04-19T15:44:50;12.90;52.40
5556;DHT22;2801;50.972;7.856;2023-04-19T15:47:17;12.70;51.60
5556;DHT22;2801;50.972;7.856;2023-04-19T15:49:44;12.90;52.90
5556;DHT22;2801;50.972;7.856;2023-04-19T15:52:12;12.90;51.80
5556;DHT22;2801;50.972;7.856;2023-04-19T15:54:39;12.70;51.30
5556;DHT22;2801;50.972;7.856;2023-04-19T15:57:06;12.50;51.40
5556;DHT22;2801;50.972;7.856;2023-04-19T15:59:33;12.40;51.70
5556;DHT22;2801;50.972;7.856;2023-04-19T16:02:00;12.00;51.80
5556;DHT22;2801;50.972;7.856;2023-04-19T16:04:28;12.10;53.40
5556;DHT22;2801;50.972;7.856;2023-04-19T16:06:56;12.00;53.60
5556;DHT22;2801;50.972;7.856;2023-04-19T16:09:24;12.00;53.60
5556;DHT22;2801;50.972;7.856;2023-04-19T16:11:51;12.00;53.50
5556;DHT22;2801;50.972;7.856;2023-04-19T16:14:18;12.10;54.20
5556;DHT22;2801;50.972;7.856;2023-04-19T16:16:46;12.20;54.20
5556;DHT22;2801;50.972;7.856;2023-04-19T16:19:13;12.40;55.40
5556;DHT22;2801;50.972;7.856;2023-04-19T16:21:41;12.50;54.40
5556;DHT22;2801;50.972;7.856;2023-04-19T16:24:08;12.40;52.90
5556;DHT22;2801;50.972;7.856;2023-04-19T16:26:34;12.30;53.10
5556;DHT22;2801;50.972;7.856;2023-04-19T16:29:01;12.10;52.30